Kungur, Russia
Current Conditions -  °F | °C
As of 5:30 PM on Thursday 30 Oct 2014 (Local Time) from USPP Reporting Station
Few Clouds Few Clouds  
Wind Chill: 25°   Ceiling: Unl
Heat Index: 36°   Visibility: 6mi
Dew Point: 34°   Wind: 18mph
Humidity: 93%   Direction: 230°SW
Pressure: 30.06"   Gusts: NA
Location:  57.43°N, 56.95°E
Report Text: USPP 301230Z 23008MPS 9999 FEW013 FEW100 02/01 Q1018 21090060NOSIG RMK QFE753/1004
Loading
Personal Weather Stations






























Interactive Weather Map
Tropical Storm Tracking
New forecast layout! Learn more

10-Day Weather Forecast

Advertisements
Track Severe Weather on mobile